Florence, Italy
Current Conditions -  °F | °C
As of 2:20 AM on Saturday 29 Nov 2014 (Local Time) from LIRQ Reporting Station
Light Fog Light Fog  
Wind Chill: 46°   Ceiling: Unl
Heat Index: 46°   Visibility: 5mi
Dew Point: 46°   Wind: 2mph
Humidity: 100%   Direction: NA
Pressure: 29.88"   Gusts: NA
Location:  43.77°N, 11.26°E
Report Text: LIRQ 290120Z VRB02KT 8000 R05/0800V1300D MIFG NSC 08/08 Q1012
Loading
Personal Weather Stations






























Interactive Weather Map New forecast layout! Learn more

10-Day Weather Forecast

Advertisements
Track Severe Weather on mobile